sensor_id;sensor_type;location;lat;lon;timestamp;P1;durP1;ratioP1;P2;durP2;ratioP2
33794;SDS011;51430;52.242;21.118;2023-08-21T00:01:57;19.20;;;17.40;;
33794;SDS011;51430;52.242;21.118;2023-08-21T00:04:24;19.50;;;17.50;;
33794;SDS011;51430;52.242;21.118;2023-08-21T00:06:50;18.60;;;16.80;;
33794;SDS011;51430;52.242;21.118;2023-08-21T00:09:18;19.10;;;17.40;;
33794;SDS011;51430;52.242;21.118;2023-08-21T00:11:44;19.00;;;17.20;;
33794;SDS011;51430;52.242;21.118;2023-08-21T00:14:11;19.00;;;17.30;;
33794;SDS011;51430;52.242;21.118;2023-08-21T00:16:37;18.80;;;16.90;;
33794;SDS011;51430;52.242;21.118;2023-08-21T00:19:04;18.80;;;16.90;;
33794;SDS011;51430;52.242;21.118;2023-08-21T00:21:30;18.80;;;16.80;;
33794;SDS011;51430;52.242;21.118;2023-08-21T00:23:57;18.70;;;16.80;;
33794;SDS011;51430;52.242;21.118;2023-08-21T00:26:23;19.10;;;17.10;;
33794;SDS011;51430;52.242;21.118;2023-08-21T00:28:50;18.60;;;16.90;;
33794;SDS011;51430;52.242;21.118;2023-08-21T00:31:16;19.10;;;17.40;;
33794;SDS011;51430;52.242;21.118;2023-08-21T00:33:44;19.10;;;17.30;;
33794;SDS011;51430;52.242;21.118;2023-08-21T00:36:10;18.10;;;16.60;;
33794;SDS011;51430;52.242;21.118;2023-08-21T00:38:37;19.40;;;17.50;;
33794;SDS011;51430;52.242;21.118;2023-08-21T00:41:03;18.80;;;16.90;;
33794;SDS011;51430;52.242;21.118;2023-08-21T00:43:32;19.40;;;17.70;;
33794;SDS011;51430;52.242;21.118;2023-08-21T00:45:59;18.90;;;17.30;;
33794;SDS011;51430;52.242;21.118;2023-08-21T00:48:26;19.10;;;17.50;;
33794;SDS011;51430;52.242;21.118;2023-08-21T00:50:52;18.90;;;17.30;;
33794;SDS011;51430;52.242;21.118;2023-08-21T00:53:19;19.30;;;17.60;;
33794;SDS011;51430;52.242;21.118;2023-08-21T00:55:46;19.40;;;17.60;;
33794;SDS011;51430;52.242;21.118;2023-08-21T00:58:13;18.80;;;16.90;;
33794;SDS011;51430;52.242;21.118;2023-08-21T01:00:41;19.60;;;17.90;;
33794;SDS011;51430;52.242;21.118;2023-08-21T01:03:10;19.30;;;17.50;;
33794;SDS011;51430;52.242;21.118;2023-08-21T01:05:36;19.00;;;17.40;;
33794;SDS011;51430;52.242;21.118;2023-08-21T01:08:05;19.80;;;18.10;;
33794;SDS011;51430;52.242;21.118;2023-08-21T01:13:25;19.30;;;17.60;;
33794;SDS011;51430;52.242;21.118;2023-08-21T01:16:12;19.80;;;17.90;;
33794;SDS011;51430;52.242;21.118;2023-08-21T01:18:42;19.80;;;17.90;;
33794;SDS011;51430;52.242;21.118;2023-08-21T01:21:13;18.90;;;17.20;;
33794;SDS011;51430;52.242;21.118;2023-08-21T01:23:40;19.00;;;17.40;;
33794;SDS011;51430;52.242;21.118;2023-08-21T01:26:09;19.60;;;17.90;;
33794;SDS011;51430;52.242;21.118;2023-08-21T01:28:36;20.30;;;18.40;;
33794;SDS011;51430;52.242;21.118;2023-08-21T01:31:05;19.70;;;17.80;;
33794;SDS011;51430;52.242;21.118;2023-08-21T01:33:33;20.00;;;18.10;;
33794;SDS011;51430;52.242;21.118;2023-08-21T01:36:03;19.80;;;18.10;;
33794;SDS011;51430;52.242;21.118;2023-08-21T01:38:31;19.50;;;17.80;;
33794;SDS011;51430;52.242;21.118;2023-08-21T01:40:59;19.40;;;17.60;;
33794;SDS011;51430;52.242;21.118;2023-08-21T01:43:26;19.90;;;18.10;;
33794;SDS011;51430;52.242;21.118;2023-08-21T01:45:52;19.70;;;17.90;;
33794;SDS011;51430;52.242;21.118;2023-08-21T01:48:21;19.30;;;17.50;;
33794;SDS011;51430;52.242;21.118;2023-08-21T01:50:48;19.80;;;18.10;;
33794;SDS011;51430;52.242;21.118;2023-08-21T01:53:15;20.40;;;18.50;;
33794;SDS011;51430;52.242;21.118;2023-08-21T01:55:41;19.50;;;18.00;;
33794;SDS011;51430;52.242;21.118;2023-08-21T01:58:08;19.70;;;18.10;;
33794;SDS011;51430;52.242;21.118;2023-08-21T02:00:34;19.60;;;18.00;;
33794;SDS011;51430;52.242;21.118;2023-08-21T02:03:01;20.20;;;18.40;;
33794;SDS011;51430;52.242;21.118;2023-08-21T02:05:28;22.90;;;20.80;;
33794;SDS011;51430;52.242;21.118;2023-08-21T02:07:55;22.70;;;20.60;;
33794;SDS011;51430;52.242;21.118;2023-08-21T02:10:21;21.30;;;19.50;;
33794;SDS011;51430;52.242;21.118;2023-08-21T02:12:49;20.80;;;18.90;;
33794;SDS011;51430;52.242;21.118;2023-08-21T02:15:16;19.40;;;17.90;;
33794;SDS011;51430;52.242;21.118;2023-08-21T02:17:43;20.70;;;18.90;;
33794;SDS011;51430;52.242;21.118;2023-08-21T02:20:10;20.30;;;18.70;;
33794;SDS011;51430;52.242;21.118;2023-08-21T02:22:37;20.20;;;18.30;;
33794;SDS011;51430;52.242;21.118;2023-08-21T02:25:05;20.50;;;18.70;;
33794;SDS011;51430;52.242;21.118;2023-08-21T02:27:31;20.20;;;18.30;;
33794;SDS011;51430;52.242;21.118;2023-08-21T02:29:58;20.60;;;18.70;;
33794;SDS011;51430;52.242;21.118;2023-08-21T02:32:25;20.70;;;18.90;;
33794;SDS011;51430;52.242;21.118;2023-08-21T02:34:51;21.50;;;19.60;;
33794;SDS011;51430;52.242;21.118;2023-08-21T02:37:18;20.60;;;18.80;;
33794;SDS011;51430;52.242;21.118;2023-08-21T02:39:44;21.40;;;19.40;;
33794;SDS011;51430;52.242;21.118;2023-08-21T02:42:11;21.30;;;19.40;;
33794;SDS011;51430;52.242;21.118;2023-08-21T02:44:37;20.30;;;18.50;;
33794;SDS011;51430;52.242;21.118;2023-08-21T02:47:04;22.10;;;20.00;;
33794;SDS011;51430;52.242;21.118;2023-08-21T02:49:31;20.30;;;18.50;;
33794;SDS011;51430;52.242;21.118;2023-08-21T02:51:57;20.20;;;18.60;;
33794;SDS011;51430;52.242;21.118;2023-08-21T02:54:24;21.20;;;19.20;;
33794;SDS011;51430;52.242;21.118;2023-08-21T02:56:51;20.80;;;19.10;;
33794;SDS011;51430;52.242;21.118;2023-08-21T02:59:18;21.60;;;19.50;;
33794;SDS011;51430;52.242;21.118;2023-08-21T03:01:44;21.00;;;19.00;;
33794;SDS011;51430;52.242;21.118;2023-08-21T03:04:11;21.00;;;19.00;;
33794;SDS011;51430;52.242;21.118;2023-08-21T03:06:37;21.40;;;19.50;;
33794;SDS011;51430;52.242;21.118;2023-08-21T03:09:04;20.70;;;18.80;;
33794;SDS011;51430;52.242;21.118;2023-08-21T03:11:30;21.20;;;19.40;;
33794;SDS011;51430;52.242;21.118;2023-08-21T03:13:57;21.50;;;19.50;;
33794;SDS011;51430;52.242;21.118;2023-08-21T03:16:23;21.40;;;19.30;;
33794;SDS011;51430;52.242;21.118;2023-08-21T03:18:57;20.90;;;19.00;;
33794;SDS011;51430;52.242;21.118;2023-08-21T03:21:26;22.30;;;20.10;;
33794;SDS011;51430;52.242;21.118;2023-08-21T03:23:54;21.50;;;19.60;;
33794;SDS011;51430;52.242;21.118;2023-08-21T03:26:23;19.80;;;18.10;;
33794;SDS011;51430;52.242;21.118;2023-08-21T03:28:50;21.70;;;19.80;;
33794;SDS011;51430;52.242;21.118;2023-08-21T03:31:17;20.80;;;19.10;;
33794;SDS011;51430;52.242;21.118;2023-08-21T03:33:43;20.90;;;19.20;;
33794;SDS011;51430;52.242;21.118;2023-08-21T03:36:10;21.90;;;20.00;;
33794;SDS011;51430;52.242;21.118;2023-08-21T03:38:37;21.20;;;19.50;;
33794;SDS011;51430;52.242;21.118;2023-08-21T03:41:04;22.40;;;20.40;;
33794;SDS011;51430;52.242;21.118;2023-08-21T03:43:31;21.70;;;19.70;;
33794;SDS011;51430;52.242;21.118;2023-08-21T03:45:58;22.10;;;20.10;;
33794;SDS011;51430;52.242;21.118;2023-08-21T03:48:26;21.60;;;19.70;;
33794;SDS011;51430;52.242;21.118;2023-08-21T03:50:53;22.20;;;20.30;;
33794;SDS011;51430;52.242;21.118;2023-08-21T03:53:19;21.60;;;19.70;;
33794;SDS011;51430;52.242;21.118;2023-08-21T03:55:46;21.50;;;19.80;;
33794;SDS011;51430;52.242;21.118;2023-08-21T03:58:13;21.60;;;19.60;;
33794;SDS011;51430;52.242;21.118;2023-08-21T04:00:41;21.40;;;19.60;;
33794;SDS011;51430;52.242;21.118;2023-08-21T04:03:08;21.20;;;19.30;;
33794;SDS011;51430;52.242;21.118;2023-08-21T04:05:34;21.60;;;19.70;;
33794;SDS011;51430;52.242;21.118;2023-08-21T04:08:01;21.90;;;19.90;;
33794;SDS011;51430;52.242;21.118;2023-08-21T04:10:28;21.60;;;19.70;;
33794;SDS011;51430;52.242;21.118;2023-08-21T04:12:55;21.50;;;19.60;;
33794;SDS011;51430;52.242;21.118;2023-08-21T04:15:21;21.40;;;19.40;;
33794;SDS011;51430;52.242;21.118;2023-08-21T04:17:48;21.80;;;20.00;;
33794;SDS011;51430;52.242;21.118;2023-08-21T04:20:14;22.10;;;20.20;;
33794;SDS011;51430;52.242;21.118;2023-08-21T04:22:41;22.20;;;20.30;;
33794;SDS011;51430;52.242;21.118;2023-08-21T04:25:08;22.90;;;20.80;;
33794;SDS011;51430;52.242;21.118;2023-08-21T04:27:35;21.20;;;19.30;;
33794;SDS011;51430;52.242;21.118;2023-08-21T04:30:01;20.90;;;19.00;;
33794;SDS011;51430;52.242;21.118;2023-08-21T04:32:34;21.20;;;19.30;;
33794;SDS011;51430;52.242;21.118;2023-08-21T04:35:00;21.40;;;19.40;;
33794;SDS011;51430;52.242;21.118;2023-08-21T04:37:27;21.80;;;19.70;;
33794;SDS011;51430;52.242;21.118;2023-08-21T04:39:54;20.70;;;18.90;;
33794;SDS011;51430;52.242;21.118;2023-08-21T04:42:21;22.40;;;20.40;;
33794;SDS011;51430;52.242;21.118;2023-08-21T04:44:48;21.70;;;19.90;;
33794;SDS011;51430;52.242;21.118;2023-08-21T04:49:48;21.50;;;19.50;;
33794;SDS011;51430;52.242;21.118;2023-08-21T04:52:16;22.00;;;20.00;;
33794;SDS011;51430;52.242;21.118;2023-08-21T04:54:42;23.50;;;21.10;;
33794;SDS011;51430;52.242;21.118;2023-08-21T04:57:12;23.90;;;21.70;;
33794;SDS011;51430;52.242;21.118;2023-08-21T04:59:40;23.80;;;21.70;;
33794;SDS011;51430;52.242;21.118;2023-08-21T05:02:06;23.10;;;21.10;;
33794;SDS011;51430;52.242;21.118;2023-08-21T05:04:35;22.70;;;20.80;;
33794;SDS011;51430;52.242;21.118;2023-08-21T05:07:03;21.80;;;20.00;;
33794;SDS011;51430;52.242;21.118;2023-08-21T05:09:30;21.70;;;19.80;;
33794;SDS011;51430;52.242;21.118;2023-08-21T05:11:58;20.90;;;19.10;;
33794;SDS011;51430;52.242;21.118;2023-08-21T05:14:24;20.60;;;18.80;;
33794;SDS011;51430;52.242;21.118;2023-08-21T05:16:51;20.50;;;18.60;;
33794;SDS011;51430;52.242;21.118;2023-08-21T05:19:18;21.50;;;19.40;;
33794;SDS011;51430;52.242;21.118;2023-08-21T05:21:45;21.00;;;18.80;;
33794;SDS011;51430;52.242;21.118;2023-08-21T05:24:12;21.40;;;19.40;;
33794;SDS011;51430;52.242;21.118;2023-08-21T05:26:38;20.30;;;18.40;;
33794;SDS011;51430;52.242;21.118;2023-08-21T05:29:05;20.90;;;18.80;;
33794;SDS011;51430;52.242;21.118;2023-08-21T05:31:32;20.70;;;18.70;;
33794;SDS011;51430;52.242;21.118;2023-08-21T05:33:58;20.70;;;18.60;;
33794;SDS011;51430;52.242;21.118;2023-08-21T05:36:25;21.10;;;19.20;;
33794;SDS011;51430;52.242;21.118;2023-08-21T05:39:21;20.00;;;18.20;;
33794;SDS011;51430;52.242;21.118;2023-08-21T05:41:47;20.70;;;18.90;;
33794;SDS011;51430;52.242;21.118;2023-08-21T05:44:14;20.80;;;18.60;;
33794;SDS011;51430;52.242;21.118;2023-08-21T05:46:40;20.30;;;18.00;;
33794;SDS011;51430;52.242;21.118;2023-08-21T05:49:07;19.30;;;17.60;;
33794;SDS011;51430;52.242;21.118;2023-08-21T05:51:33;19.60;;;17.80;;
33794;SDS011;51430;52.242;21.118;2023-08-21T05:54:00;18.50;;;16.80;;
33794;SDS011;51430;52.242;21.118;2023-08-21T05:56:26;19.80;;;17.90;;
33794;SDS011;51430;52.242;21.118;2023-08-21T05:58:53;19.20;;;17.40;;
33794;SDS011;51430;52.242;21.118;2023-08-21T06:01:19;19.30;;;17.40;;
33794;SDS011;51430;52.242;21.118;2023-08-21T06:03:47;18.20;;;16.60;;
33794;SDS011;51430;52.242;21.118;2023-08-21T06:06:16;18.70;;;16.90;;
33794;SDS011;51430;52.242;21.118;2023-08-21T06:08:43;18.00;;;16.40;;
33794;SDS011;51430;52.242;21.118;2023-08-21T06:12:03;18.00;;;16.30;;
33794;SDS011;51430;52.242;21.118;2023-08-21T06:14:30;18.50;;;16.80;;
33794;SDS011;51430;52.242;21.118;2023-08-21T06:17:02;18.80;;;16.90;;
33794;SDS011;51430;52.242;21.118;2023-08-21T06:19:29;19.30;;;17.20;;
33794;SDS011;51430;52.242;21.118;2023-08-21T06:22:00;22.80;;;17.00;;
33794;SDS011;51430;52.242;21.118;2023-08-21T06:24:26;20.50;;;16.00;;
33794;SDS011;51430;52.242;21.118;2023-08-21T06:26:53;19.80;;;15.60;;
33794;SDS011;51430;52.242;21.118;2023-08-21T06:29:20;24.80;;;16.80;;
33794;SDS011;51430;52.242;21.118;2023-08-21T06:31:49;19.90;;;17.00;;
33794;SDS011;51430;52.242;21.118;2023-08-21T06:34:17;19.00;;;16.30;;
33794;SDS011;51430;52.242;21.118;2023-08-21T06:36:43;18.50;;;16.60;;
33794;SDS011;51430;52.242;21.118;2023-08-21T06:39:10;18.60;;;16.60;;
33794;SDS011;51430;52.242;21.118;2023-08-21T06:41:36;19.30;;;16.70;;
33794;SDS011;51430;52.242;21.118;2023-08-21T06:44:03;18.60;;;16.80;;
33794;SDS011;51430;52.242;21.118;2023-08-21T06:46:31;18.10;;;16.40;;
33794;SDS011;51430;52.242;21.118;2023-08-21T06:49:17;18.60;;;15.40;;
33794;SDS011;51430;52.242;21.118;2023-08-21T06:52:05;18.60;;;16.70;;
33794;SDS011;51430;52.242;21.118;2023-08-21T06:54:33;18.50;;;16.60;;
33794;SDS011;51430;52.242;21.118;2023-08-21T06:57:00;20.20;;;16.30;;
33794;SDS011;51430;52.242;21.118;2023-08-21T06:59:26;17.90;;;16.30;;
33794;SDS011;51430;52.242;21.118;2023-08-21T07:01:53;17.20;;;13.00;;
33794;SDS011;51430;52.242;21.118;2023-08-21T07:04:19;21.10;;;15.80;;
33794;SDS011;51430;52.242;21.118;2023-08-21T07:06:46;17.10;;;15.50;;
33794;SDS011;51430;52.242;21.118;2023-08-21T07:09:12;18.00;;;16.20;;
33794;SDS011;51430;52.242;21.118;2023-08-21T07:11:39;19.20;;;16.00;;
33794;SDS011;51430;52.242;21.118;2023-08-21T07:14:05;18.10;;;16.30;;
33794;SDS011;51430;52.242;21.118;2023-08-21T07:16:32;18.40;;;15.80;;
33794;SDS011;51430;52.242;21.118;2023-08-21T07:18:59;18.10;;;15.90;;
33794;SDS011;51430;52.242;21.118;2023-08-21T07:21:26;17.90;;;16.20;;
33794;SDS011;51430;52.242;21.118;2023-08-21T07:24:00;18.00;;;16.50;;
33794;SDS011;51430;52.242;21.118;2023-08-21T07:26:30;17.80;;;16.20;;
33794;SDS011;51430;52.242;21.118;2023-08-21T07:28:56;18.30;;;16.70;;
33794;SDS011;51430;52.242;21.118;2023-08-21T07:31:23;18.10;;;16.60;;
33794;SDS011;51430;52.242;21.118;2023-08-21T07:33:49;18.30;;;16.60;;
33794;SDS011;51430;52.242;21.118;2023-08-21T07:36:16;18.20;;;16.50;;
33794;SDS011;51430;52.242;21.118;2023-08-21T07:38:45;17.90;;;16.40;;
33794;SDS011;51430;52.242;21.118;2023-08-21T07:41:12;19.20;;;17.50;;
33794;SDS011;51430;52.242;21.118;2023-08-21T07:43:40;19.20;;;17.40;;
33794;SDS011;51430;52.242;21.118;2023-08-21T07:46:09;18.10;;;16.50;;
33794;SDS011;51430;52.242;21.118;2023-08-21T07:49:18;18.40;;;16.70;;
33794;SDS011;51430;52.242;21.118;2023-08-21T07:52:34;20.00;;;17.70;;
33794;SDS011;51430;52.242;21.118;2023-08-21T07:55:03;20.50;;;18.60;;
33794;SDS011;51430;52.242;21.118;2023-08-21T07:57:31;20.20;;;18.50;;
33794;SDS011;51430;52.242;21.118;2023-08-21T07:59:59;20.20;;;18.60;;
33794;SDS011;51430;52.242;21.118;2023-08-21T08:02:27;19.30;;;17.70;;
33794;SDS011;51430;52.242;21.118;2023-08-21T08:06:43;19.80;;;18.00;;
33794;SDS011;51430;52.242;21.118;2023-08-21T08:09:09;20.50;;;18.70;;
33794;SDS011;51430;52.242;21.118;2023-08-21T08:11:36;20.40;;;18.50;;
33794;SDS011;51430;52.242;21.118;2023-08-21T08:14:03;19.10;;;17.40;;
33794;SDS011;51430;52.242;21.118;2023-08-21T08:16:29;18.70;;;17.10;;
33794;SDS011;51430;52.242;21.118;2023-08-21T08:20:13;17.40;;;16.00;;
33794;SDS011;51430;52.242;21.118;2023-08-21T08:23:51;16.60;;;15.10;;
33794;SDS011;51430;52.242;21.118;2023-08-21T08:26:19;16.70;;;15.30;;
33794;SDS011;51430;52.242;21.118;2023-08-21T08:31:38;16.00;;;14.50;;
33794;SDS011;51430;52.242;21.118;2023-08-21T08:34:06;16.70;;;15.10;;
33794;SDS011;51430;52.242;21.118;2023-08-21T08:36:34;16.40;;;14.90;;
33794;SDS011;51430;52.242;21.118;2023-08-21T08:39:02;14.90;;;13.60;;
33794;SDS011;51430;52.242;21.118;2023-08-21T08:42:05;13.90;;;12.80;;
33794;SDS011;51430;52.242;21.118;2023-08-21T08:44:29;15.50;;;14.00;;
33794;SDS011;51430;52.242;21.118;2023-08-21T08:46:58;13.90;;;12.70;;
33794;SDS011;51430;52.242;21.118;2023-08-21T08:49:28;13.10;;;12.00;;
33794;SDS011;51430;52.242;21.118;2023-08-21T08:51:57;13.60;;;12.30;;
33794;SDS011;51430;52.242;21.118;2023-08-21T08:54:25;13.30;;;12.10;;
33794;SDS011;51430;52.242;21.118;2023-08-21T08:56:55;12.80;;;11.60;;
33794;SDS011;51430;52.242;21.118;2023-08-21T09:00:19;13.40;;;12.00;;
33794;SDS011;51430;52.242;21.118;2023-08-21T09:03:34;12.80;;;10.90;;
33794;SDS011;51430;52.242;21.118;2023-08-21T09:07:12;11.90;;;10.70;;
33794;SDS011;51430;52.242;21.118;2023-08-21T09:10:42;12.50;;;10.90;;
33794;SDS011;51430;52.242;21.118;2023-08-21T09:14:30;10.50;;;9.60;;
33794;SDS011;51430;52.242;21.118;2023-08-21T09:21:41;9.60;;;8.70;;
33794;SDS011;51430;52.242;21.118;2023-08-21T09:25:17;9.40;;;8.70;;
33794;SDS011;51430;52.242;21.118;2023-08-21T09:29:04;9.10;;;7.80;;
33794;SDS011;51430;52.242;21.118;2023-08-21T09:32:14;8.20;;;7.40;;
33794;SDS011;51430;52.242;21.118;2023-08-21T09:35:31;8.20;;;7.40;;
33794;SDS011;51430;52.242;21.118;2023-08-21T09:42:23;7.30;;;6.60;;
33794;SDS011;51430;52.242;21.118;2023-08-21T09:46:03;7.10;;;6.40;;
33794;SDS011;51430;52.242;21.118;2023-08-21T09:49:33;7.40;;;6.40;;
33794;SDS011;51430;52.242;21.118;2023-08-21T09:53:16;6.70;;;6.10;;
33794;SDS011;51430;52.242;21.118;2023-08-21T09:56:46;7.00;;;6.30;;
33794;SDS011;51430;52.242;21.118;2023-08-21T10:00:15;7.50;;;5.90;;
33794;SDS011;51430;52.242;21.118;2023-08-21T10:03:48;7.00;;;5.90;;
33794;SDS011;51430;52.242;21.118;2023-08-21T10:06:58;8.70;;;6.20;;
33794;SDS011;51430;52.242;21.118;2023-08-21T10:10:37;4.10;;;3.80;;
33794;SDS011;51430;52.242;21.118;2023-08-21T10:14:11;4.70;;;4.10;;
33794;SDS011;51430;52.242;21.118;2023-08-21T10:17:38;4.40;;;4.00;;
33794;SDS011;51430;52.242;21.118;2023-08-21T10:21:15;4.80;;;3.80;;
33794;SDS011;51430;52.242;21.118;2023-08-21T10:24:13;4.40;;;3.70;;
33794;SDS011;51430;52.242;21.118;2023-08-21T10:27:20;4.30;;;3.60;;
33794;SDS011;51430;52.242;21.118;2023-08-21T10:30:56;3.60;;;3.30;;
33794;SDS011;51430;52.242;21.118;2023-08-21T10:34:13;2.90;;;2.70;;
33794;SDS011;51430;52.242;21.118;2023-08-21T10:38:04;6.70;;;3.60;;
33794;SDS011;51430;52.242;21.118;2023-08-21T10:41:13;4.20;;;3.10;;
33794;SDS011;51430;52.242;21.118;2023-08-21T10:44:47;6.00;;;3.50;;
33794;SDS011;51430;52.242;21.118;2023-08-21T10:47:52;4.30;;;3.70;;
33794;SDS011;51430;52.242;21.118;2023-08-21T10:51:29;4.90;;;3.40;;
33794;SDS011;51430;52.242;21.118;2023-08-21T10:58:54;5.10;;;3.70;;
33794;SDS011;51430;52.242;21.118;2023-08-21T11:02:10;4.40;;;3.70;;
33794;SDS011;51430;52.242;21.118;2023-08-21T11:05:17;5.60;;;3.10;;
33794;SDS011;51430;52.242;21.118;2023-08-21T11:08:29;4.50;;;3.40;;
33794;SDS011;51430;52.242;21.118;2023-08-21T11:11:51;6.60;;;3.40;;
33794;SDS011;51430;52.242;21.118;2023-08-21T11:15:27;4.40;;;4.00;;
33794;SDS011;51430;52.242;21.118;2023-08-21T11:18:16;5.30;;;4.20;;
33794;SDS011;51430;52.242;21.118;2023-08-21T11:22:07;6.40;;;4.00;;
33794;SDS011;51430;52.242;21.118;2023-08-21T11:25:40;5.10;;;4.20;;
33794;SDS011;51430;52.242;21.118;2023-08-21T11:28:39;5.10;;;4.00;;
33794;SDS011;51430;52.242;21.118;2023-08-21T11:31:41;3.90;;;3.50;;
33794;SDS011;51430;52.242;21.118;2023-08-21T11:34:57;6.30;;;3.70;;
33794;SDS011;51430;52.242;21.118;2023-08-21T11:38:57;5.90;;;3.30;;
33794;SDS011;51430;52.242;21.118;2023-08-21T11:42:11;6.70;;;3.40;;
33794;SDS011;51430;52.242;21.118;2023-08-21T11:44:59;4.50;;;3.50;;
33794;SDS011;51430;52.242;21.118;2023-08-21T11:47:32;4.70;;;3.20;;
33794;SDS011;51430;52.242;21.118;2023-08-21T11:50:45;3.90;;;3.60;;
33794;SDS011;51430;52.242;21.118;2023-08-21T11:54:08;5.80;;;3.30;;
33794;SDS011;51430;52.242;21.118;2023-08-21T11:56:38;4.90;;;3.10;;
33794;SDS011;51430;52.242;21.118;2023-08-21T11:59:53;4.10;;;2.40;;
33794;SDS011;51430;52.242;21.118;2023-08-21T12:03:54;4.60;;;2.60;;
33794;SDS011;51430;52.242;21.118;2023-08-21T12:07:35;3.70;;;2.70;;
33794;SDS011;51430;52.242;21.118;2023-08-21T12:11:46;3.10;;;2.70;;
33794;SDS011;51430;52.242;21.118;2023-08-21T12:15:27;5.20;;;3.00;;
33794;SDS011;51430;52.242;21.118;2023-08-21T12:17:55;6.90;;;2.90;;
33794;SDS011;51430;52.242;21.118;2023-08-21T12:20:27;3.00;;;2.60;;
33794;SDS011;51430;52.242;21.118;2023-08-21T12:23:09;5.80;;;3.00;;
33794;SDS011;51430;52.242;21.118;2023-08-21T12:26:49;3.90;;;2.80;;
33794;SDS011;51430;52.242;21.118;2023-08-21T12:37:27;3.10;;;2.50;;
33794;SDS011;51430;52.242;21.118;2023-08-21T12:39:59;4.20;;;2.60;;
33794;SDS011;51430;52.242;21.118;2023-08-21T12:43:52;5.20;;;3.20;;
33794;SDS011;51430;52.242;21.118;2023-08-21T12:47:02;6.90;;;3.00;;
33794;SDS011;51430;52.242;21.118;2023-08-21T12:49:30;4.50;;;2.90;;
33794;SDS011;51430;52.242;21.118;2023-08-21T12:53:02;5.70;;;2.90;;
33794;SDS011;51430;52.242;21.118;2023-08-21T12:56:18;4.00;;;2.70;;
33794;SDS011;51430;52.242;21.118;2023-08-21T13:00:03;4.80;;;2.70;;
33794;SDS011;51430;52.242;21.118;2023-08-21T13:03:29;5.20;;;2.50;;
33794;SDS011;51430;52.242;21.118;2023-08-21T13:06:34;5.40;;;2.60;;
33794;SDS011;51430;52.242;21.118;2023-08-21T13:09:22;3.60;;;2.30;;
33794;SDS011;51430;52.242;21.118;2023-08-21T13:13:08;4.10;;;2.30;;
33794;SDS011;51430;52.242;21.118;2023-08-21T13:20:30;5.00;;;2.40;;
33794;SDS011;51430;52.242;21.118;2023-08-21T13:24:16;4.00;;;1.90;;
33794;SDS011;51430;52.242;21.118;2023-08-21T13:26:50;3.30;;;1.90;;
33794;SDS011;51430;52.242;21.118;2023-08-21T13:29:59;3.80;;;2.10;;
33794;SDS011;51430;52.242;21.118;2023-08-21T13:33:11;2.60;;;1.90;;
33794;SDS011;51430;52.242;21.118;2023-08-21T13:36:16;6.00;;;2.10;;
33794;SDS011;51430;52.242;21.118;2023-08-21T13:38:51;3.30;;;1.80;;
33794;SDS011;51430;52.242;21.118;2023-08-21T13:41:54;4.00;;;2.00;;
33794;SDS011;51430;52.242;21.118;2023-08-21T13:44:27;4.10;;;1.90;;
33794;SDS011;51430;52.242;21.118;2023-08-21T13:48:04;3.70;;;2.00;;
33794;SDS011;51430;52.242;21.118;2023-08-21T13:51:26;4.20;;;1.80;;
33794;SDS011;51430;52.242;21.118;2023-08-21T13:54:07;6.50;;;2.30;;
33794;SDS011;51430;52.242;21.118;2023-08-21T13:57:02;4.50;;;1.60;;
33794;SDS011;51430;52.242;21.118;2023-08-21T14:00:39;5.40;;;1.90;;
33794;SDS011;51430;52.242;21.118;2023-08-21T14:03:48;3.20;;;1.60;;
33794;SDS011;51430;52.242;21.118;2023-08-21T14:07:11;3.80;;;1.90;;
33794;SDS011;51430;52.242;21.118;2023-08-21T14:10:40;4.60;;;1.70;;
33794;SDS011;51430;52.242;21.118;2023-08-21T14:13:30;4.90;;;1.70;;
33794;SDS011;51430;52.242;21.118;2023-08-21T14:17:57;3.60;;;1.50;;
33794;SDS011;51430;52.242;21.118;2023-08-21T14:20:25;4.70;;;1.60;;
33794;SDS011;51430;52.242;21.118;2023-08-21T14:23:14;4.20;;;1.70;;
33794;SDS011;51430;52.242;21.118;2023-08-21T14:26:16;3.20;;;1.60;;
33794;SDS011;51430;52.242;21.118;2023-08-21T14:29:33;2.70;;;1.50;;
33794;SDS011;51430;52.242;21.118;2023-08-21T14:32:04;3.10;;;1.70;;
33794;SDS011;51430;52.242;21.118;2023-08-21T14:35:34;3.10;;;1.70;;
33794;SDS011;51430;52.242;21.118;2023-08-21T14:38:14;4.30;;;1.40;;
33794;SDS011;51430;52.242;21.118;2023-08-21T14:41:21;3.10;;;1.60;;
33794;SDS011;51430;52.242;21.118;2023-08-21T14:44:14;3.40;;;1.70;;
33794;SDS011;51430;52.242;21.118;2023-08-21T14:46:44;4.60;;;1.50;;
33794;SDS011;51430;52.242;21.118;2023-08-21T14:50:27;2.70;;;1.30;;
33794;SDS011;51430;52.242;21.118;2023-08-21T14:53:42;4.30;;;1.80;;
33794;SDS011;51430;52.242;21.118;2023-08-21T14:56:53;5.80;;;1.80;;
33794;SDS011;51430;52.242;21.118;2023-08-21T15:49:30;3.00;;;1.60;;
33794;SDS011;51430;52.242;21.118;2023-08-21T15:52:52;2.60;;;1.70;;
33794;SDS011;51430;52.242;21.118;2023-08-21T15:56:46;7.60;;;1.60;;
33794;SDS011;51430;52.242;21.118;2023-08-21T16:05:50;3.20;;;1.70;;
33794;SDS011;51430;52.242;21.118;2023-08-21T16:09:53;4.10;;;1.60;;
33794;SDS011;51430;52.242;21.118;2023-08-21T16:17:41;5.60;;;1.70;;
33794;SDS011;51430;52.242;21.118;2023-08-21T16:20:58;2.70;;;1.70;;
33794;SDS011;51430;52.242;21.118;2023-08-21T16:24:39;4.90;;;1.90;;
33794;SDS011;51430;52.242;21.118;2023-08-21T16:28:42;3.60;;;1.60;;
33794;SDS011;51430;52.242;21.118;2023-08-21T16:32:26;2.30;;;1.80;;
33794;SDS011;51430;52.242;21.118;2023-08-21T16:35:36;3.20;;;2.10;;
33794;SDS011;51430;52.242;21.118;2023-08-21T16:41:04;4.00;;;1.70;;
33794;SDS011;51430;52.242;21.118;2023-08-21T16:44:15;4.60;;;1.80;;
33794;SDS011;51430;52.242;21.118;2023-08-21T16:47:38;5.10;;;1.80;;
33794;SDS011;51430;52.242;21.118;2023-08-21T16:51:15;4.80;;;2.00;;
33794;SDS011;51430;52.242;21.118;2023-08-21T16:54:53;4.10;;;2.00;;
33794;SDS011;51430;52.242;21.118;2023-08-21T16:58:24;4.90;;;1.80;;
33794;SDS011;51430;52.242;21.118;2023-08-21T17:01:29;4.90;;;1.90;;
33794;SDS011;51430;52.242;21.118;2023-08-21T17:04:26;5.40;;;2.00;;
33794;SDS011;51430;52.242;21.118;2023-08-21T17:12:01;4.90;;;2.10;;
33794;SDS011;51430;52.242;21.118;2023-08-21T17:18:15;4.80;;;2.10;;
33794;SDS011;51430;52.242;21.118;2023-08-21T17:21:11;6.40;;;1.90;;
33794;SDS011;51430;52.242;21.118;2023-08-21T17:24:47;4.90;;;2.20;;
33794;SDS011;51430;52.242;21.118;2023-08-21T17:28:10;6.90;;;2.20;;
33794;SDS011;51430;52.242;21.118;2023-08-21T17:38:10;7.60;;;2.50;;
33794;SDS011;51430;52.242;21.118;2023-08-21T17:40:45;5.50;;;2.40;;
33794;SDS011;51430;52.242;21.118;2023-08-21T17:46:34;4.10;;;2.20;;
33794;SDS011;51430;52.242;21.118;2023-08-21T17:49:41;4.50;;;2.30;;
33794;SDS011;51430;52.242;21.118;2023-08-21T17:52:24;6.00;;;2.40;;
33794;SDS011;51430;52.242;21.118;2023-08-21T17:55:45;5.60;;;2.40;;
33794;SDS011;51430;52.242;21.118;2023-08-21T17:58:36;5.00;;;2.20;;
33794;SDS011;51430;52.242;21.118;2023-08-21T18:02:24;4.50;;;2.40;;
33794;SDS011;51430;52.242;21.118;2023-08-21T18:05:53;3.30;;;2.10;;
33794;SDS011;51430;52.242;21.118;2023-08-21T18:09:18;4.60;;;2.40;;
33794;SDS011;51430;52.242;21.118;2023-08-21T18:12:29;4.20;;;2.50;;